Time;durP1;ratioP1;P1;durP2;ratioP2;P2;SDS_P1;SDS_P2;PMS_P1;PMS_P2;Temp;Humidity;BMP_temperature;BMP_pressure;BME280_temperature;BME280_humidity;BME280_pressure;Samples;Min_cycle;Max_cycle;Signal;HPM_P1;HPM_P2
2023/06/04 00:00:57;;;;;;;4.70;1.90;;;;;;;13.03;46.26;99719.85;108117;1306;22283;-48
2023/06/04 00:03:22;;;;;;;4.60;1.60;;;;;;;13.02;46.58;99722.40;108129;1306;22453;-50
2023/06/04 00:05:48;;;;;;;3.80;2.10;;;;;;;13.01;46.55;99724.23;108097;1306;22248;-51
2023/06/04 00:08:13;;;;;;;4.20;2.30;;;;;;;13.01;46.44;99720.89;108122;1306;22417;-50
2023/06/04 00:10:39;;;;;;;7.00;1.80;;;;;;;12.98;46.58;99717.34;108150;1304;22123;-50
2023/06/04 00:13:05;;;;;;;7.40;2.40;;;;;;;12.97;46.64;99717.23;108116;1306;22396;-47
2023/06/04 00:15:30;;;;;;;4.80;2.30;;;;;;;12.96;46.73;99717.14;108131;1306;22994;-49
2023/06/04 00:17:56;;;;;;;5.80;1.80;;;;;;;12.94;46.39;99719.69;108157;1283;22415;-49
2023/06/04 00:20:22;;;;;;;3.90;2.10;;;;;;;12.91;46.37;99720.41;108149;1306;22235;-47
2023/06/04 00:22:47;;;;;;;4.80;2.10;;;;;;;12.89;46.34;99714.39;108140;1306;22244;-47
2023/06/04 00:25:12;;;;;;;2.70;1.80;;;;;;;12.91;46.03;99715.64;108151;1306;22377;-47
2023/06/04 00:27:37;;;;;;;2.40;2.10;;;;;;;12.90;46.42;99715.57;108120;1306;22422;-49
2023/06/04 00:30:04;;;;;;;5.50;2.00;;;;;;;12.90;46.09;99714.33;108106;1306;24227;-51
2023/06/04 00:32:29;;;;;;;3.40;1.70;;;;;;;12.88;46.87;99715.14;108151;1306;22426;-51
2023/06/04 00:34:57;;;;;;;4.90;2.00;;;;;;;12.87;46.88;99714.84;108124;1305;22951;-50
2023/06/04 00:37:24;;;;;;;4.80;2.30;;;;;;;12.87;46.71;99718.15;108163;1306;22239;-47
2023/06/04 00:39:50;;;;;;;3.70;1.90;;;;;;;12.86;46.65;99714.52;108146;1304;23076;-49
2023/06/04 00:42:15;;;;;;;3.20;2.50;;;;;;;12.85;46.62;99714.62;108153;1306;22179;-46
2023/06/04 00:44:44;;;;;;;4.00;2.30;;;;;;;12.82;46.81;99713.73;108134;1306;22211;-46
2023/06/04 00:47:13;;;;;;;4.30;2.00;;;;;;;12.79;47.14;99713.00;108156;1305;22364;-45
2023/06/04 00:49:39;;;;;;;7.10;2.20;;;;;;;12.78;46.79;99715.18;108145;1306;22221;-49
2023/06/04 00:52:05;;;;;;;4.60;2.10;;;;;;;12.76;46.99;99709.84;108138;1306;22965;-50
2023/06/04 00:54:33;;;;;;;8.20;2.40;;;;;;;12.74;47.13;99709.23;108143;1306;22291;-45
2023/06/04 00:56:59;;;;;;;6.00;2.40;;;;;;;12.72;47.59;99710.24;108128;1306;22500;-49
2023/06/04 00:59:24;;;;;;;4.70;1.70;;;;;;;12.72;47.24;99704.28;107910;1306;22420;-50
2023/06/04 01:02:02;;;;;;;2.90;1.90;;;;;;;12.68;47.50;99705.00;108133;1301;22097;-47
2023/06/04 01:04:34;;;;;;;5.30;2.30;;;;;;;12.64;47.84;99703.65;108117;1306;22241;-46
2023/06/04 01:07:02;;;;;;;3.80;1.90;;;;;;;12.64;47.86;99703.13;108138;1306;22427;-49
2023/06/04 01:09:28;;;;;;;6.40;2.30;;;;;;;12.63;47.91;99705.48;108123;1306;22232;-46
2023/06/04 01:11:54;;;;;;;3.60;1.90;;;;;;;12.60;47.81;99706.71;108165;1306;22328;-50
2023/06/04 01:14:19;;;;;;;3.00;1.90;;;;;;;12.58;47.91;99706.45;108131;1306;22464;-49
2023/06/04 01:17:29;;;;;;;4.00;2.10;;;;;;;12.57;47.85;99706.88;108139;1306;22285;-49
2023/06/04 01:20:22;;;;;;;4.20;1.90;;;;;;;12.56;48.00;99708.00;107158;1314;22254;-48
2023/06/04 01:23:11;;;;;;;3.50;2.10;;;;;;;12.53;48.29;99705.34;107172;1314;22417;-50
2023/06/04 01:25:41;;;;;;;3.30;1.80;;;;;;;12.52;47.99;99705.97;107176;1314;22313;-47
2023/06/04 01:28:08;;;;;;;5.40;2.10;;;;;;;12.51;48.03;99707.21;107182;1314;22344;-47
2023/06/04 01:30:36;;;;;;;5.90;2.00;;;;;;;12.51;48.48;99706.15;107174;1314;22319;-49
2023/06/04 01:33:02;;;;;;;4.60;2.10;;;;;;;12.50;48.56;99706.05;107196;1314;22262;-50
2023/06/04 01:35:31;;;;;;;4.00;2.10;;;;;;;12.47;48.54;99708.84;106960;1315;22318;-46
2023/06/04 01:37:56;;;;;;;8.20;2.20;;;;;;;12.45;48.53;99711.77;107204;1314;22323;-49
2023/06/04 01:40:23;;;;;;;6.10;2.20;;;;;;;12.43;48.96;99713.64;107192;1314;22891;-47
2023/06/04 01:42:48;;;;;;;2.90;2.10;;;;;;;12.42;48.81;99712.62;107187;1314;22278;-49
2023/06/04 01:45:14;;;;;;;5.70;2.50;;;;;;;12.42;48.62;99710.87;107174;1314;22202;-47
2023/06/04 01:47:39;;;;;;;5.20;2.00;;;;;;;12.41;48.57;99708.11;107170;1314;23236;-51
2023/06/04 01:50:09;;;;;;;5.50;2.20;;;;;;;12.42;48.54;99707.52;107182;1314;22253;-48
2023/06/04 01:52:36;;;;;;;5.20;2.10;;;;;;;12.40;48.77;99709.97;107192;1314;22468;-49
2023/06/04 01:55:02;;;;;;;3.10;1.80;;;;;;;12.39;48.87;99711.59;107950;1306;22178;-47
2023/06/04 01:57:28;;;;;;;4.00;1.80;;;;;;;12.37;48.66;99710.13;108015;1304;22425;-45
2023/06/04 01:59:53;;;;;;;5.30;2.50;;;;;;;12.36;48.67;99710.89;108028;1306;23106;-48
2023/06/04 02:02:18;;;;;;;3.90;2.20;;;;;;;12.35;48.64;99709.89;108017;1306;23341;-48
2023/06/04 02:04:44;;;;;;;2.30;2.00;;;;;;;12.34;48.81;99708.52;108030;1306;22245;-49
2023/06/04 02:07:10;;;;;;;4.10;1.90;;;;;;;12.32;49.33;99704.25;108021;1306;22223;-48
2023/06/04 02:09:36;;;;;;;7.10;2.10;;;;;;;12.29;49.29;99703.16;108051;1306;22230;-47
2023/06/04 02:12:02;;;;;;;3.70;2.30;;;;;;;12.23;49.43;99702.08;108015;1306;22207;-49
2023/06/04 02:14:27;;;;;;;8.90;2.10;;;;;;;12.22;49.71;99700.39;108041;1306;22955;-51
2023/06/04 02:16:53;;;;;;;5.10;1.90;;;;;;;12.20;49.73;99700.14;108021;1306;22265;-47
2023/06/04 02:19:19;;;;;;;2.80;1.50;;;;;;;12.18;50.16;99700.27;108048;1306;22396;-46
2023/06/04 02:21:45;;;;;;;3.30;1.90;;;;;;;12.17;50.01;99705.41;108018;1306;22220;-47
2023/06/04 02:24:10;;;;;;;4.60;2.10;;;;;;;12.16;49.63;99706.69;108018;1306;22922;-46
2023/06/04 02:26:35;;;;;;;3.00;2.10;;;;;;;12.15;49.64;99706.41;108033;1306;22325;-47
2023/06/04 02:29:01;;;;;;;8.70;2.20;;;;;;;12.11;50.27;99703.09;108021;1306;23041;-49
2023/06/04 02:31:26;;;;;;;7.60;2.10;;;;;;;12.11;50.05;99707.15;108011;1306;22242;-48
2023/06/04 02:33:51;;;;;;;2.70;1.70;;;;;;;12.10;50.11;99706.84;108021;1306;22985;-48
2023/06/04 02:36:17;;;;;;;3.80;2.10;;;;;;;12.09;50.58;99707.80;108021;1306;22637;-45
2023/06/04 02:38:42;;;;;;;4.50;2.00;;;;;;;12.07;50.15;99703.66;108039;1306;22402;-48
2023/06/04 02:43:41;;;;;;;8.00;2.20;;;;;;;12.04;50.06;99704.18;107271;1308;546129;-48
2023/06/04 02:46:07;;;;;;;4.70;2.20;;;;;;;11.98;50.98;99700.65;107615;1310;22309;-48
2023/06/04 02:48:32;;;;;;;3.90;1.80;;;;;;;11.97;50.79;99699.69;107624;1310;22307;-48
2023/06/04 02:50:57;;;;;;;4.50;2.10;;;;;;;11.95;50.52;99702.95;107652;1310;22426;-49
2023/06/04 02:53:23;;;;;;;4.90;2.00;;;;;;;11.91;50.65;99700.31;107646;1310;22924;-47
2023/06/04 02:55:50;;;;;;;9.30;2.00;;;;;;;11.89;51.30;99702.36;107624;1310;22252;-51
2023/06/04 02:58:16;;;;;;;3.80;1.80;;;;;;;11.88;51.58;99700.63;107732;1308;144962;-48
2023/06/04 03:00:41;;;;;;;5.20;2.30;;;;;;;11.88;51.31;99699.95;107814;1308;22251;-49
2023/06/04 03:03:07;;;;;;;6.70;2.20;;;;;;;11.88;50.83;99699.04;107832;1308;23382;-44
2023/06/04 03:05:32;;;;;;;5.10;2.10;;;;;;;11.87;51.10;99703.85;107819;1308;22407;-46
2023/06/04 03:07:59;;;;;;;6.60;2.40;;;;;;;11.86;51.25;99702.67;107840;1308;22431;-45
2023/06/04 03:10:25;;;;;;;5.80;2.30;;;;;;;11.86;51.53;99704.09;107826;1308;22231;-50
2023/06/04 03:12:50;;;;;;;4.50;1.90;;;;;;;11.85;51.79;99705.02;107838;1308;22240;-48
2023/06/04 03:15:15;;;;;;;2.90;2.00;;;;;;;11.85;51.41;99704.48;107809;1308;22298;-49
2023/06/04 03:17:41;;;;;;;2.60;2.10;;;;;;;11.84;51.75;99707.91;107841;1308;22368;-47
2023/06/04 03:20:07;;;;;;;5.90;2.30;;;;;;;11.83;51.60;99709.84;107821;1308;22212;-49
2023/06/04 03:22:35;;;;;;;2.90;2.00;;;;;;;11.80;51.80;99712.80;107855;1308;22234;-44
2023/06/04 03:25:00;;;;;;;6.90;2.40;;;;;;;11.79;51.93;99711.63;107851;1308;23136;-47
2023/06/04 03:27:26;;;;;;;4.00;2.40;;;;;;;11.81;51.67;99710.65;107835;1308;22227;-48
2023/06/04 03:29:51;;;;;;;3.90;2.30;;;;;;;11.82;51.75;99708.33;107820;1308;22249;-46
2023/06/04 03:32:17;;;;;;;3.80;2.10;;;;;;;11.84;51.96;99708.41;107840;1308;23246;-47
2023/06/04 03:34:42;;;;;;;6.80;2.00;;;;;;;11.83;52.24;99707.56;107843;1308;22979;-47
2023/06/04 03:37:08;;;;;;;4.50;2.30;;;;;;;11.83;52.17;99707.92;107857;1308;22566;-45
2023/06/04 03:39:33;;;;;;;6.90;2.30;;;;;;;11.83;51.86;99708.10;107828;1308;22996;-45
2023/06/04 03:41:58;;;;;;;9.30;2.20;;;;;;;11.83;52.67;99711.28;107843;1286;22332;-47
2023/06/04 03:44:23;;;;;;;5.80;2.10;;;;;;;11.84;52.45;99709.95;107851;1308;22249;-49
2023/06/04 03:46:49;;;;;;;4.30;2.20;;;;;;;11.86;52.16;99713.38;107836;1308;22385;-50
2023/06/04 03:49:17;;;;;;;3.80;2.20;;;;;;;11.88;52.02;99714.33;107846;1308;22217;-47
2023/06/04 03:51:42;;;;;;;4.60;2.10;;;;;;;11.89;52.71;99715.69;107813;1308;22282;-55
2023/06/04 03:54:07;;;;;;;3.00;2.20;;;;;;;11.93;52.83;99715.39;107835;1308;22231;-50
2023/06/04 03:56:33;;;;;;;3.60;2.10;;;;;;;11.95;52.46;99713.65;107822;1308;22231;-48
2023/06/04 03:58:58;;;;;;;4.20;2.20;;;;;;;11.96;52.33;99716.91;107822;1308;23288;-47
2023/06/04 04:01:24;;;;;;;8.20;1.80;;;;;;;11.99;52.38;99716.24;107773;1308;23251;-47
2023/06/04 04:03:50;;;;;;;4.20;1.90;;;;;;;12.02;52.67;99717.14;107755;1298;22397;-52
2023/06/04 04:06:16;;;;;;;4.10;2.00;;;;;;;12.04;52.42;99719.64;107816;1308;23201;-46
2023/06/04 04:08:43;;;;;;;6.60;2.20;;;;;;;12.06;52.59;99717.95;107836;1308;22415;-48
2023/06/04 04:11:12;;;;;;;2.60;1.90;;;;;;;12.09;52.34;99713.06;107793;1308;22212;-48
2023/06/04 04:13:37;;;;;;;4.60;1.90;;;;;;;12.14;51.87;99714.40;107836;1308;22306;-47
2023/06/04 04:16:03;;;;;;;3.40;1.60;;;;;;;12.17;51.99;99719.46;107821;1308;22254;-48
2023/06/04 04:18:33;;;;;;;3.30;1.90;;;;;;;12.21;51.43;99718.38;107802;1308;22293;-47
2023/06/04 04:20:58;;;;;;;6.00;1.90;;;;;;;12.21;51.55;99717.30;107802;1308;22212;-47
2023/06/04 04:23:23;;;;;;;6.10;3.30;;;;;;;12.22;51.49;99722.52;107837;1308;22878;-51
2023/06/04 04:25:49;;;;;;;4.40;2.90;;;;;;;12.27;51.89;99725.42;107803;1308;22296;-50
2023/06/04 04:28:17;;;;;;;4.70;2.00;;;;;;;12.32;51.32;99723.59;107801;1308;23039;-48
2023/06/04 04:30:44;;;;;;;6.30;2.00;;;;;;;12.35;51.48;99723.94;107818;1308;22218;-51
2023/06/04 04:33:10;;;;;;;2.50;1.80;;;;;;;12.38;50.98;99722.55;107823;1308;22989;-46
2023/06/04 04:35:36;;;;;;;4.60;1.60;;;;;;;12.41;50.94;99722.35;107839;1308;22206;-47
2023/06/04 04:38:04;;;;;;;3.90;1.90;;;;;;;12.44;50.69;99719.02;107825;1308;22472;-48
2023/06/04 04:40:30;;;;;;;6.60;1.90;;;;;;;12.46;50.42;99716.45;107846;1308;22212;-48
2023/06/04 04:42:56;;;;;;;2.30;1.70;;;;;;;12.49;50.54;99716.46;107802;1308;22453;-48
2023/06/04 04:45:21;;;;;;;4.60;1.70;;;;;;;12.55;50.49;99713.86;107819;1308;22256;-48
2023/06/04 04:47:47;;;;;;;8.20;1.70;;;;;;;12.61;50.41;99715.10;107811;1308;22219;-48
2023/06/04 04:50:12;;;;;;;4.00;1.80;;;;;;;12.64;50.16;99718.59;107853;1308;23042;-46
2023/06/04 04:52:38;;;;;;;5.30;1.70;;;;;;;12.69;49.82;99718.49;107800;1308;22266;-45
2023/06/04 04:55:03;;;;;;;4.70;1.70;;;;;;;12.76;49.79;99718.83;107833;1308;23091;-45
2023/06/04 04:57:29;;;;;;;1.70;1.40;;;;;;;12.80;49.55;99720.52;107820;1308;22452;-48
2023/06/04 04:59:54;;;;;;;8.00;1.60;;;;;;;12.84;49.27;99717.83;107781;1308;22244;-46
2023/06/04 05:02:20;;;;;;;2.90;1.70;;;;;;;12.89;49.03;99721.23;107812;1308;22214;-46
2023/06/04 05:04:45;;;;;;;4.50;1.60;;;;;;;12.95;49.25;99720.20;107819;1308;22929;-46
2023/06/04 05:07:11;;;;;;;4.20;1.40;;;;;;;12.99;48.88;99719.21;107798;1308;22268;-49
2023/06/04 05:09:36;;;;;;;5.40;1.40;;;;;;;13.04;48.74;99721.03;107846;1308;22363;-48
2023/06/04 05:12:02;;;;;;;7.70;1.30;;;;;;;13.10;48.60;99719.50;107808;1308;22311;-48
2023/06/04 05:14:28;;;;;;;4.80;1.80;;;;;;;13.10;48.84;99720.89;107844;1308;22490;-45
2023/06/04 05:16:56;;;;;;;2.70;1.50;;;;;;;13.13;48.56;99722.86;107820;1308;22237;-52
2023/06/04 05:19:22;;;;;;;3.90;1.40;;;;;;;13.16;48.65;99723.69;107810;1308;22246;-45
2023/06/04 05:21:48;;;;;;;2.90;1.40;;;;;;;13.20;48.88;99718.72;107818;1308;22290;-45
2023/06/04 05:24:14;;;;;;;3.50;1.60;;;;;;;13.25;48.68;99721.75;107831;1308;22267;-47
2023/06/04 05:26:39;;;;;;;1.70;1.20;;;;;;;13.30;48.53;99721.68;107828;1308;22337;-48
2023/06/04 05:29:05;;;;;;;4.70;1.50;;;;;;;13.32;48.34;99724.88;107789;1308;22252;-49
2023/06/04 05:31:33;;;;;;;4.20;1.40;;;;;;;13.38;48.64;99727.39;107826;1308;22888;-49
2023/06/04 05:34:01;;;;;;;5.70;1.60;;;;;;;13.42;48.62;99724.14;107814;1308;22997;-49
2023/06/04 05:36:29;;;;;;;3.30;1.40;;;;;;;13.47;48.48;99726.52;107869;1308;22246;-46
2023/06/04 05:38:57;;;;;;;2.80;1.50;;;;;;;13.50;48.42;99726.33;107817;1308;22093;-47
2023/06/04 05:41:27;;;;;;;2.00;1.50;;;;;;;13.53;48.71;99728.05;107824;1308;23184;-49
2023/06/04 05:43:53;;;;;;;3.90;1.60;;;;;;;13.55;48.74;99724.23;107846;1308;22229;-47
2023/06/04 05:46:18;;;;;;;1.90;1.40;;;;;;;13.59;48.48;99726.94;107809;1308;22406;-50
2023/06/04 05:48:43;;;;;;;2.00;1.70;;;;;;;13.65;48.62;99729.80;107809;1308;22456;-46
2023/06/04 05:51:09;;;;;;;7.90;1.30;;;;;;;13.71;48.43;99731.52;107784;1308;22240;-50
2023/06/04 05:53:34;;;;;;;4.00;1.20;;;;;;;13.78;47.72;99729.02;107840;1308;23002;-49
2023/06/04 05:55:59;;;;;;;2.00;1.10;;;;;;;13.84;47.44;99729.85;107816;1308;22673;-47
2023/06/04 05:58:25;;;;;;;2.60;1.00;;;;;;;13.90;46.91;99730.23;107264;1308;24725;-48
2023/06/04 06:00:50;;;;;;;3.10;1.30;;;;;;;13.94;46.67;99735.61;107152;1308;22268;-48
2023/06/04 06:03:16;;;;;;;2.30;1.40;;;;;;;13.98;46.72;99737.12;107811;1308;22296;-48
2023/06/04 06:05:42;;;;;;;1.60;1.30;;;;;;;14.02;46.99;99736.00;107837;1308;22249;-51
2023/06/04 06:08:08;;;;;;;6.10;1.30;;;;;;;14.06;47.07;99739.96;107840;1308;22240;-50
2023/06/04 06:10:33;;;;;;;2.20;1.20;;;;;;;14.11;46.87;99739.84;107813;1308;23211;-48
2023/06/04 06:13:00;;;;;;;2.60;1.70;;;;;;;14.16;46.85;99739.29;107824;1308;22388;-50
2023/06/04 06:15:26;;;;;;;3.20;1.40;;;;;;;14.22;46.55;99740.91;107841;1308;22973;-45
2023/06/04 06:17:51;;;;;;;3.10;1.30;;;;;;;14.27;46.22;99739.87;107820;1308;22124;-48
2023/06/04 06:20:18;;;;;;;13.40;1.30;;;;;;;14.32;46.17;99740.41;107815;1308;22228;-49
2023/06/04 06:22:43;;;;;;;2.70;1.10;;;;;;;14.38;46.25;99742.86;107818;1308;22811;-45
2023/06/04 06:25:09;;;;;;;4.80;1.60;;;;;;;14.46;46.31;99743.11;107812;1308;23140;-44
2023/06/04 06:27:35;;;;;;;3.10;1.20;;;;;;;14.51;46.13;99739.72;107806;1308;22218;-46
2023/06/04 06:30:00;;;;;;;1.40;1.10;;;;;;;14.57;45.98;99736.70;107817;1308;22304;-47
2023/06/04 06:32:27;;;;;;;3.20;1.30;;;;;;;14.65;45.83;99740.16;107822;1308;22420;-46
2023/06/04 06:34:52;;;;;;;4.40;1.20;;;;;;;14.71;45.57;99743.40;107838;1308;23085;-45
2023/06/04 06:37:17;;;;;;;2.80;1.10;;;;;;;14.79;45.29;99743.98;107802;1308;22291;-49
2023/06/04 06:39:43;;;;;;;5.50;1.20;;;;;;;14.84;44.89;99740.27;107785;1302;22512;-50
2023/06/04 06:42:08;;;;;;;1.10;0.90;;;;;;;14.93;45.20;99741.11;107744;1302;22571;-49
2023/06/04 06:44:33;;;;;;;4.80;1.20;;;;;;;15.02;45.05;99738.58;107002;1309;22240;-49
2023/06/04 06:46:59;;;;;;;12.00;1.80;;;;;;;15.09;44.59;99738.83;107669;1309;22059;-47
2023/06/04 06:49:24;;;;;;;4.00;1.00;;;;;;;15.15;44.47;99738.44;107688;1309;22216;-45
2023/06/04 06:51:50;;;;;;;4.10;1.20;;;;;;;15.23;44.25;99742.30;107653;1309;22326;-45
2023/06/04 06:54:16;;;;;;;2.70;1.10;;;;;;;15.30;43.86;99741.50;107684;1309;22446;-46
2023/06/04 06:56:41;;;;;;;4.70;1.30;;;;;;;15.35;43.40;99740.59;107657;1309;22239;-46
2023/06/04 06:59:06;;;;;;;3.50;0.90;;;;;;;15.43;43.31;99741.83;107688;1309;22344;-45
2023/06/04 07:01:33;;;;;;;5.00;1.50;;;;;;;15.48;43.23;99743.40;107688;1309;22257;-48
2023/06/04 07:03:58;;;;;;;1.60;1.30;;;;;;;15.51;42.53;99743.57;107695;1309;22226;-46
2023/06/04 07:06:24;;;;;;;1.00;0.90;;;;;;;15.55;42.59;99745.27;107684;1309;22691;-45
2023/06/04 07:08:49;;;;;;;1.90;1.10;;;;;;;15.63;43.13;99750.16;107695;1309;22439;-47
2023/06/04 07:11:16;;;;;;;1.10;1.00;;;;;;;15.68;43.08;99753.54;107684;1309;22231;-47
2023/06/04 07:13:42;;;;;;;3.90;1.10;;;;;;;15.74;43.02;99753.52;107661;1309;23083;-47
2023/06/04 07:16:07;;;;;;;1.20;0.80;;;;;;;15.78;42.64;99754.48;107704;1309;22467;-49
2023/06/04 07:18:32;;;;;;;3.90;0.80;;;;;;;15.81;42.41;99756.03;107671;1309;22248;-46
2023/06/04 07:20:58;;;;;;;1.70;1.00;;;;;;;15.85;41.60;99755.23;107680;1309;23213;-46
2023/06/04 07:23:23;;;;;;;2.70;1.00;;;;;;;15.91;42.13;99762.27;107691;1309;22317;-48
2023/06/04 07:25:49;;;;;;;2.30;1.20;;;;;;;15.96;42.02;99759.42;107698;1309;23207;-47
2023/06/04 07:28:15;;;;;;;3.30;1.40;;;;;;;16.02;41.64;99758.14;107686;1309;22289;-48
2023/06/04 07:30:40;;;;;;;3.80;0.90;;;;;;;16.04;41.13;99755.45;107686;1309;22200;-49
2023/06/04 07:33:06;;;;;;;1.50;0.80;;;;;;;16.08;40.08;99758.72;107681;1309;22242;-45
2023/06/04 07:35:31;;;;;;;3.30;1.10;;;;;;;16.15;39.56;99756.19;107677;1309;22402;-49
2023/06/04 07:37:57;;;;;;;5.50;1.10;;;;;;;16.18;38.99;99760.51;107683;1309;22435;-47
2023/06/04 07:40:22;;;;;;;2.20;1.00;;;;;;;16.24;38.34;99758.88;107683;1309;23048;-49
2023/06/04 07:42:48;;;;;;;1.30;0.80;;;;;;;16.30;38.58;99766.73;107707;1309;22426;-47
2023/06/04 07:45:14;;;;;;;2.10;0.90;;;;;;;16.33;38.48;99760.50;107710;1309;22258;-47
2023/06/04 07:47:39;;;;;;;1.10;0.90;;;;;;;16.36;38.26;99760.80;107708;1309;22206;-48
2023/06/04 07:50:06;;;;;;;2.40;1.00;;;;;;;16.41;38.22;99757.67;107710;1309;22985;-46
2023/06/04 07:52:31;;;;;;;5.50;1.00;;;;;;;16.48;37.39;99759.08;107706;1309;22332;-44
2023/06/04 07:54:57;;;;;;;1.50;1.10;;;;;;;16.55;36.32;99758.75;107691;1309;22229;-49
2023/06/04 07:57:23;;;;;;;1.70;1.00;;;;;;;16.63;36.44;99762.09;107710;1309;22959;-48
2023/06/04 07:59:49;;;;;;;4.80;1.00;;;;;;;16.73;37.61;99762.58;107721;1309;22281;-48
2023/06/04 08:02:22;;;;;;;1.10;1.00;;;;;;;16.83;37.47;99764.37;107688;1309;22189;-47
2023/06/04 08:04:47;;;;;;;1.30;1.20;;;;;;;16.93;38.03;99758.52;107663;1309;22181;-49
2023/06/04 08:07:12;;;;;;;3.40;1.10;;;;;;;17.02;38.23;99760.52;107752;1308;22307;-47
2023/06/04 08:09:38;;;;;;;3.20;0.80;;;;;;;17.15;38.37;99760.54;107703;1309;23029;-46
2023/06/04 08:12:03;;;;;;;2.00;1.20;;;;;;;17.28;37.52;99762.23;107694;1309;22376;-47
2023/06/04 08:14:29;;;;;;;3.10;1.20;;;;;;;17.42;37.42;99760.84;107673;1309;23032;-44
2023/06/04 08:16:54;;;;;;;3.70;1.10;;;;;;;17.56;37.32;99758.89;107693;1309;22744;-48
2023/06/04 08:19:20;;;;;;;0.70;0.70;;;;;;;17.74;37.28;99756.42;107707;1309;22434;-49
2023/06/04 08:21:45;;;;;;;3.30;0.80;;;;;;;17.93;37.38;99755.52;107683;1309;23361;-45
2023/06/04 08:24:11;;;;;;;1.30;0.90;;;;;;;18.09;37.35;99753.76;107712;1309;22998;-46
2023/06/04 08:26:36;;;;;;;1.10;0.90;;;;;;;18.24;36.86;99755.02;107709;1309;22203;-45
2023/06/04 08:29:04;;;;;;;4.40;0.80;;;;;;;18.41;36.77;99759.67;107713;1309;22227;-47
2023/06/04 08:31:30;;;;;;;3.20;0.70;;;;;;;18.56;36.68;99757.98;107705;1294;22534;-49
2023/06/04 08:33:56;;;;;;;1.40;0.80;;;;;;;18.67;35.30;99757.40;107701;1309;22228;-46
2023/06/04 08:36:58;;;;;;;1.40;0.80;;;;;;;18.77;33.82;99752.52;106491;1305;558532;-44
2023/06/04 08:39:24;;;;;;;3.10;0.90;;;;;;;18.77;34.00;99755.52;107344;1306;23009;-45
2023/06/04 08:41:52;;;;;;;2.00;1.00;;;;;;;18.95;35.21;99754.29;107911;1306;22212;-47
2023/06/04 08:44:18;;;;;;;2.10;0.90;;;;;;;19.12;34.34;99753.56;107888;1307;22470;-45
2023/06/04 08:46:44;;;;;;;1.70;0.80;;;;;;;19.31;34.32;99750.55;107908;1307;23110;-47
2023/06/04 08:49:12;;;;;;;1.10;0.70;;;;;;;19.50;34.85;99748.77;107813;1304;129406;-49
2023/06/04 08:51:37;;;;;;;4.20;1.20;;;;;;;19.70;33.15;99747.80;108180;1294;22290;-46
2023/06/04 08:54:07;;;;;;;4.10;0.90;;;;;;;19.82;32.34;99750.00;108200;1304;23250;-50
2023/06/04 08:56:33;;;;;;;3.40;1.10;;;;;;;19.83;31.83;99749.52;108190;1304;22924;-50
2023/06/04 08:59:03;;;;;;;1.10;0.80;;;;;;;19.95;31.91;99754.27;108211;1304;23045;-49
2023/06/04 09:01:33;;;;;;;1.20;0.90;;;;;;;20.15;31.96;99752.25;108184;1304;22570;-45
2023/06/04 09:04:03;;;;;;;1.70;0.70;;;;;;;20.35;31.92;99750.83;108207;1304;22426;-47
2023/06/04 09:06:30;;;;;;;0.70;0.70;;;;;;;20.56;30.92;99748.34;108186;1304;22478;-46
2023/06/04 09:09:00;;;;;;;1.10;0.80;;;;;;;20.76;31.14;99752.23;108193;1304;23063;-48
2023/06/04 09:11:35;;;;;;;5.10;0.90;;;;;;;20.98;31.34;99747.55;108184;1304;22332;-47
2023/06/04 09:14:06;;;;;;;1.90;0.90;;;;;;;21.32;30.71;99747.98;108198;1304;22242;-44
2023/06/04 09:16:37;;;;;;;2.70;0.80;;;;;;;21.61;29.86;99744.59;108182;1304;23278;-44
2023/06/04 09:19:04;;;;;;;2.90;0.90;;;;;;;21.77;28.18;99743.05;108213;1304;22373;-46
2023/06/04 09:21:29;;;;;;;1.90;0.80;;;;;;;21.90;27.93;99745.45;108047;1304;22991;-47
2023/06/04 09:23:55;;;;;;;1.20;0.90;;;;;;;22.20;29.39;99740.61;108064;1298;22249;-47
2023/06/04 09:26:21;;;;;;;3.20;0.80;;;;;;;22.45;28.71;99735.92;108029;1298;23125;-47
2023/06/04 09:28:46;;;;;;;1.20;1.00;;;;;;;22.81;28.66;99738.07;107970;1299;22883;-49
2023/06/04 09:31:16;;;;;;;1.20;0.90;;;;;;;23.22;28.44;99733.83;108078;1305;23083;-48
2023/06/04 09:33:46;;;;;;;2.70;1.00;;;;;;;23.50;29.48;99735.27;108049;1302;23119;-47
2023/06/04 09:36:12;;;;;;;1.50;0.80;;;;;;;23.94;27.75;99734.98;108032;1305;23264;-46
2023/06/04 09:38:39;;;;;;;3.70;1.10;;;;;;;24.40;26.30;99736.61;108059;1305;22314;-47
2023/06/04 09:41:11;;;;;;;1.90;0.90;;;;;;;25.04;26.05;99734.78;108052;1297;22494;-46
2023/06/04 09:43:37;;;;;;;5.60;1.10;;;;;;;25.71;24.77;99731.11;108034;1305;23021;-45
2023/06/04 09:46:10;;;;;;;2.80;1.10;;;;;;;26.22;23.98;99737.02;108049;1300;22308;-46
2023/06/04 09:48:36;;;;;;;1.40;0.80;;;;;;;26.64;23.00;99737.80;108028;1305;23129;-49
2023/06/04 09:51:12;;;;;;;3.70;1.30;;;;;;;26.78;22.85;99737.63;108025;1305;22253;-49
2023/06/04 09:53:38;;;;;;;5.70;1.50;;;;;;;27.01;22.20;99743.02;108016;1298;23289;-48
2023/06/04 09:56:06;;;;;;;1.30;0.70;;;;;;;27.40;22.76;99737.23;108028;1297;22671;-46
2023/06/04 09:58:32;;;;;;;0.70;0.70;;;;;;;27.69;22.09;99733.91;108048;1299;22485;-47
2023/06/04 10:00:59;;;;;;;0.80;0.70;;;;;;;28.05;21.64;99738.80;108057;1302;22354;-47
2023/06/04 10:03:26;;;;;;;1.70;0.80;;;;;;;28.49;21.72;99742.45;108034;1297;22535;-47
2023/06/04 10:05:57;;;;;;;1.40;0.90;;;;;;;28.64;20.08;99740.73;108024;1298;22506;-46
2023/06/04 10:08:23;;;;;;;1.40;0.90;;;;;;;28.80;19.80;99738.54;108034;1298;23228;-48
2023/06/04 10:10:52;;;;;;;1.60;1.00;;;;;;;29.04;19.67;99740.73;108017;1297;22390;-48
2023/06/04 10:13:18;;;;;;;4.60;1.10;;;;;;;29.14;19.40;99742.25;108001;1298;22242;-46
2023/06/04 10:15:45;;;;;;;2.00;0.90;;;;;;;29.12;20.44;99741.02;108017;1305;22394;-46
2023/06/04 10:18:13;;;;;;;3.40;0.90;;;;;;;28.41;20.35;99737.37;108017;1298;22886;-46
2023/06/04 10:20:39;;;;;;;1.50;1.10;;;;;;;27.94;20.83;99735.38;107974;1305;23663;-47
2023/06/04 10:23:07;;;;;;;1.30;1.00;;;;;;;27.92;20.54;99730.61;107981;1291;23207;-46
2023/06/04 10:25:37;;;;;;;1.70;0.90;;;;;;;27.91;20.49;99728.19;107997;1297;22435;-45
2023/06/04 10:28:03;;;;;;;1.20;0.80;;;;;;;28.31;20.04;99733.31;108038;1305;22917;-49
2023/06/04 10:30:32;;;;;;;7.40;0.90;;;;;;;28.91;20.08;99732.52;108035;1299;22274;-44
2023/06/04 10:32:58;;;;;;;2.30;0.80;;;;;;;29.25;19.13;99727.15;108009;1305;22245;-46
2023/06/04 10:35:33;;;;;;;;;;;;;;;28.94;19.23;99725.38;108053;1298;22442;-46
2023/06/04 10:38:09;;;;;;;1.70;0.80;;;;;;;28.20;19.86;99724.56;108053;1305;22425;-48
2023/06/04 10:40:36;;;;;;;1.40;0.90;;;;;;;27.88;20.17;99721.36;108038;1297;22566;-46
2023/06/04 10:43:08;;;;;;;1.50;1.20;;;;;;;28.31;19.78;99728.73;108046;1297;22268;-45
2023/06/04 10:45:34;;;;;;;4.20;1.40;;;;;;;28.94;19.50;99727.45;108038;1305;22508;-46
2023/06/04 10:48:05;;;;;;;3.20;1.10;;;;;;;29.28;18.96;99725.85;107996;1305;22972;-47
2023/06/04 10:50:32;;;;;;;4.10;1.50;;;;;;;29.86;18.51;99723.15;107984;1306;22438;-45
2023/06/04 10:52:58;;;;;;;4.50;0.80;;;;;;;30.36;18.31;99720.41;108007;1306;22320;-46
2023/06/04 10:55:24;;;;;;;2.40;0.80;;;;;;;30.49;17.47;99717.79;108004;1299;22415;-46
2023/06/04 10:58:00;;;;;;;6.30;1.10;;;;;;;30.91;17.39;99718.87;108003;1305;22248;-47
2023/06/04 11:00:40;;;;;;;3.60;1.00;;;;;;;30.89;17.02;99724.27;107999;1306;22556;-46
2023/06/04 11:03:09;;;;;;;1.90;1.10;;;;;;;31.04;16.69;99723.31;108028;1306;22956;-46
2023/06/04 11:05:50;;;;;;;1.90;1.10;;;;;;;31.35;16.75;99720.01;108030;1306;22252;-43
2023/06/04 11:08:28;;;;;;;1.20;0.80;;;;;;;31.81;16.38;99717.03;107989;1306;23150;-44
2023/06/04 11:10:53;;;;;;;0.80;0.80;;;;;;;31.96;16.51;99712.56;107989;1306;22269;-49
2023/06/04 11:13:24;;;;;;;2.20;0.90;;;;;;;32.17;16.14;99715.73;107981;1306;22237;-47
2023/06/04 11:15:49;;;;;;;0.80;0.80;;;;;;;32.33;15.89;99721.94;108027;1290;22251;-48
2023/06/04 11:18:17;;;;;;;1.10;0.70;;;;;;;32.88;15.60;99718.92;107995;1306;22491;-44
2023/06/04 11:20:45;;;;;;;3.60;0.80;;;;;;;33.06;15.80;99721.52;107994;1306;22987;-48
2023/06/04 11:23:12;;;;;;;6.90;0.90;;;;;;;33.32;15.30;99722.07;107997;1306;23192;-43
2023/06/04 11:25:38;;;;;;;1.50;0.70;;;;;;;33.83;15.46;99719.75;107971;1298;22381;-48